Time,TemperatureF,DewpointF,PressureIn,WindDirection,WindDirectionDegrees,WindSpeedMPH,WindSpeedGustMPH,Humidity,HourlyPrecipIn,Conditions,Clouds,dailyrainin,SoftwareType,DateUTC
2013-04-13 00:00:00,40.0,35.9,29.86,South,189,3.0,5.0,85,0.00,,---,0.00,VWS V14.01,2013-04-13 04:00:00,
2013-04-13 00:05:00,40.0,35.9,29.86,South,187,0.0,5.0,85,0.00,,---,0.00,VWS V14.01,2013-04-13 04:05:00,
2013-04-13 00:10:00,40.0,35.9,29.86,South,184,2.0,6.0,85,0.00,,---,0.00,VWS V14.01,2013-04-13 04:10:00,
2013-04-13 00:15:00,40.0,35.9,29.86,SSW,206,2.0,6.0,85,0.00,,---,0.00,VWS V14.01,2013-04-13 04:15:00,
2013-04-13 00:20:00,40.0,35.9,29.86,SSW,211,2.0,8.0,85,0.00,,---,0.00,VWS V14.01,2013-04-13 04:20:00,
2013-04-13 00:25:00,40.1,36.0,29.86,SSW,203,0.0,8.0,85,0.00,,---,0.00,VWS V14.01,2013-04-13 04:25:00,
2013-04-13 00:30:00,40.1,36.0,29.86,SW,219,1.0,3.0,85,0.00,,---,0.00,VWS V14.01,2013-04-13 04:30:00,
2013-04-13 00:35:00,40.1,35.7,29.86,SW,219,2.0,3.0,84,0.00,,---,0.00,VWS V14.01,2013-04-13 04:35:00,
2013-04-13 00:41:00,40.2,35.8,29.86,SW,235,0.0,4.0,84,0.00,,---,0.00,VWS V14.01,2013-04-13 04:41:00,
2013-04-13 00:45:00,40.2,35.8,29.87,SW,235,0.0,4.0,84,0.00,,---,0.00,VWS V14.01,2013-04-13 04:45:00,
2013-04-13 00:50:00,40.2,36.1,29.87,SSW,192,3.0,4.0,85,0.00,,---,0.00,VWS V14.01,2013-04-13 04:50:00,
2013-04-13 00:56:00,40.2,35.8,29.87,West,260,0.0,4.0,84,0.00,,---,0.00,VWS V14.01,2013-04-13 04:56:00,
2013-04-13 01:00:00,40.3,35.9,29.87,SSW,196,2.0,4.0,84,0.00,,---,0.00,VWS V14.01,2013-04-13 05:00:00,
2013-04-13 01:01:00,40.3,35.6,29.87,SSW,196,1.0,3.0,83,0.00,,---,0.00,VWS V14.01,2013-04-13 05:01:00,
2013-04-13 01:06:00,40.4,35.3,29.87,South,184,2.0,5.0,82,0.00,,---,0.00,VWS V14.01,2013-04-13 05:06:00,
2013-04-13 01:11:00,40.5,35.5,29.87,South,180,0.0,5.0,82,0.00,,---,0.00,VWS V14.01,2013-04-13 05:11:00,
2013-04-13 01:16:00,40.6,35.5,29.87,SSW,192,1.0,5.0,82,0.00,,---,0.00,VWS V14.01,2013-04-13 05:16:00,
2013-04-13 01:21:00,40.7,35.6,29.87,SSW,211,0.0,5.0,82,0.00,,---,0.00,VWS V14.01,2013-04-13 05:21:00,
2013-04-13 01:26:00,40.7,35.3,29.87,South,184,0.0,5.0,81,0.00,,---,0.00,VWS V14.01,2013-04-13 05:26:00,
2013-04-13 01:30:00,40.8,35.4,29.87,South,184,0.0,5.0,81,0.00,,---,0.00,VWS V14.01,2013-04-13 05:30:00,
2013-04-13 01:31:00,40.8,35.4,29.87,South,184,0.0,2.0,81,0.00,,---,0.00,VWS V14.01,2013-04-13 05:31:00,
2013-04-13 01:36:00,40.8,35.4,29.87,South,189,4.0,7.0,81,0.00,,---,0.00,VWS V14.01,2013-04-13 05:36:00,
2013-04-13 01:41:00,40.9,35.5,29.88,SSW,205,0.0,7.0,81,0.00,,---,0.00,VWS V14.01,2013-04-13 05:41:00,
2013-04-13 01:46:00,40.9,35.8,29.88,SSW,206,1.0,7.0,82,0.00,,---,0.00,VWS V14.01,2013-04-13 05:46:00,
2013-04-13 01:51:00,40.9,35.8,29.87,SSW,206,2.0,7.0,82,0.00,,---,0.00,VWS V14.01,2013-04-13 05:51:00,
2013-04-13 01:56:00,40.9,35.8,29.87,SSE,165,1.0,7.0,82,0.00,,---,0.00,VWS V14.01,2013-04-13 05:56:00,
2013-04-13 02:00:00,40.9,35.8,29.87,SW,217,2.0,7.0,82,0.00,,---,0.00,VWS V14.01,2013-04-13 06:00:00,
2013-04-13 02:01:00,41.0,35.9,29.88,SSE,147,0.0,4.0,82,0.00,,---,0.00,VWS V14.01,2013-04-13 06:01:00,
2013-04-13 02:06:00,41.0,35.9,29.87,WSW,242,0.0,6.0,82,0.00,,---,0.00,VWS V14.01,2013-04-13 06:06:00,
2013-04-13 02:11:00,41.0,35.9,29.88,WSW,253,0.0,6.0,82,0.00,,---,0.00,VWS V14.01,2013-04-13 06:11:00,
2013-04-13 02:16:00,41.0,35.9,29.87,NNW,336,1.0,6.0,82,0.00,,---,0.00,VWS V14.01,2013-04-13 06:16:00,
2013-04-13 02:21:00,41.0,35.9,29.87,SSW,203,2.0,8.0,82,0.00,,---,0.00,VWS V14.01,2013-04-13 06:21:00,
2013-04-13 02:27:00,41.0,36.2,29.87,SW,225,0.0,8.0,83,0.00,,---,0.00,VWS V14.01,2013-04-13 06:27:00,
2013-04-13 02:30:00,41.0,36.2,29.87,SW,225,0.0,8.0,83,0.00,,---,0.00,VWS V14.01,2013-04-13 06:30:00,
2013-04-13 02:32:00,41.0,37.7,29.87,North,1,0.0,3.0,88,0.00,,---,0.00,VWS V14.01,2013-04-13 06:32:00,
2013-04-13 02:37:00,40.9,36.1,29.87,South,175,0.0,3.0,83,0.00,,---,0.00,VWS V14.01,2013-04-13 06:37:00,
2013-04-13 02:42:00,40.9,36.1,29.87,ENE,77,0.0,7.0,83,0.00,,---,0.00,VWS V14.01,2013-04-13 06:42:00,
2013-04-13 02:47:00,40.8,36.0,29.87,SE,130,0.0,7.0,83,0.00,,---,0.00,VWS V14.01,2013-04-13 06:47:00,
2013-04-13 02:52:00,40.8,36.0,29.87,North,354,0.0,7.0,83,0.00,,---,0.00,VWS V14.01,2013-04-13 06:52:00,
2013-04-13 02:58:00,40.7,36.0,29.87,SSW,196,1.0,1.0,83,0.00,,---,0.00,VWS V14.01,2013-04-13 06:58:00,
2013-04-13 03:00:00,40.7,36.0,29.87,SSW,196,1.0,7.0,83,0.00,,---,0.00,VWS V14.01,2013-04-13 07:00:00,
2013-04-13 03:03:00,40.7,36.0,29.87,SSW,194,2.0,5.0,83,0.00,,---,0.00,VWS V14.01,2013-04-13 07:03:00,
2013-04-13 03:08:00,40.7,36.0,29.87,South,188,0.0,5.0,83,0.00,,---,0.00,VWS V14.01,2013-04-13 07:08:00,
2013-04-13 03:13:00,40.6,35.8,29.87,SSE,165,0.0,5.0,83,0.00,,---,0.00,VWS V14.01,2013-04-13 07:13:00,
2013-04-13 03:18:00,40.6,35.8,29.87,South,184,0.0,10.0,83,0.00,,---,0.00,VWS V14.01,2013-04-13 07:18:00,
2013-04-13 03:23:00,40.6,35.8,29.87,South,180,1.0,10.0,83,0.00,,---,0.00,VWS V14.01,2013-04-13 07:23:00,
2013-04-13 03:28:00,40.6,35.8,29.87,SE,140,2.0,3.0,83,0.00,,---,0.00,VWS V14.01,2013-04-13 07:28:00,
2013-04-13 03:30:00,40.6,35.8,29.87,South,180,0.0,10.0,83,0.00,,---,0.00,VWS V14.01,2013-04-13 07:30:00,
2013-04-13 03:33:00,40.6,35.8,29.87,SSW,192,3.0,5.0,83,0.00,,---,0.00,VWS V14.01,2013-04-13 07:33:00,
2013-04-13 03:38:00,40.6,35.8,29.87,SSW,192,3.0,5.0,83,0.00,,---,0.00,VWS V14.01,2013-04-13 07:38:00,
2013-04-13 03:43:00,40.6,35.8,29.87,South,170,1.0,5.0,83,0.00,,---,0.00,VWS V14.01,2013-04-13 07:43:00,
2013-04-13 03:48:00,40.6,35.8,29.87,South,190,1.0,5.0,83,0.00,,---,0.00,VWS V14.01,2013-04-13 07:48:00,
2013-04-13 03:53:00,40.6,35.8,29.87,NNW,342,0.0,5.0,83,0.00,,---,0.00,VWS V14.01,2013-04-13 07:53:00,
2013-04-13 03:59:00,40.6,35.8,29.87,SE,124,1.0,3.0,83,0.00,,---,0.00,VWS V14.01,2013-04-13 07:59:00,
2013-04-13 04:00:00,40.6,35.8,29.87,ESE,119,0.0,5.0,83,0.00,,---,0.00,VWS V14.01,2013-04-13 08:00:00,
2013-04-13 04:04:00,40.6,35.8,29.88,WSW,252,0.0,3.0,83,0.00,,---,0.00,VWS V14.01,2013-04-13 08:04:00,
2013-04-13 04:09:00,40.6,35.8,29.88,West,278,1.0,5.0,83,0.00,,---,0.00,VWS V14.01,2013-04-13 08:09:00,
2013-04-13 04:14:00,40.6,35.8,29.88,SSE,165,3.0,6.0,83,0.00,,---,0.00,VWS V14.01,2013-04-13 08:14:00,
2013-04-13 04:19:00,40.6,35.8,29.87,North,358,1.0,6.0,83,0.00,,---,0.00,VWS V14.01,2013-04-13 08:19:00,
2013-04-13 04:25:00,40.6,35.8,29.87,SSW,201,1.0,6.0,83,0.00,,---,0.00,VWS V14.01,2013-04-13 08:25:00,
2013-04-13 04:30:00,40.6,35.8,29.87,SSE,165,0.0,1.0,83,0.00,,---,0.00,VWS V14.01,2013-04-13 08:30:00,
2013-04-13 04:35:00,40.6,35.5,29.87,SSW,208,2.0,8.0,82,0.00,,---,0.00,VWS V14.01,2013-04-13 08:35:00,
2013-04-13 04:40:00,40.6,35.8,29.88,NNW,334,2.0,8.0,83,0.00,,---,0.00,VWS V14.01,2013-04-13 08:40:00,
2013-04-13 04:45:00,40.6,35.8,29.88,SW,220,1.0,8.0,83,0.00,,---,0.00,VWS V14.01,2013-04-13 08:45:00,
2013-04-13 04:50:00,40.6,35.8,29.88,SSW,201,0.0,8.0,83,0.00,,---,0.00,VWS V14.01,2013-04-13 08:50:00,
2013-04-13 04:55:00,40.6,35.8,29.88,WNW,298,2.0,8.0,83,0.00,,---,0.00,VWS V14.01,2013-04-13 08:55:00,
2013-04-13 05:00:00,40.5,35.8,29.89,WNW,286,2.0,6.0,83,0.00,,---,0.00,VWS V14.01,2013-04-13 09:00:00,
2013-04-13 05:05:00,39.0,34.6,29.89,NW,304,2.0,6.0,84,0.00,,---,0.00,VWS V14.01,2013-04-13 09:05:00,
2013-04-13 05:10:00,37.9,34.1,29.89,South,180,0.0,6.0,86,0.00,,---,0.00,VWS V14.01,2013-04-13 09:10:00,
2013-04-13 05:16:00,37.4,34.2,29.88,NNW,331,0.0,6.0,88,0.00,,---,0.00,VWS V14.01,2013-04-13 09:16:00,
2013-04-13 05:21:00,37.3,34.4,29.88,WSW,242,0.0,6.0,89,0.00,,---,0.00,VWS V14.01,2013-04-13 09:21:00,
2013-04-13 05:26:00,37.3,34.4,29.88,SE,132,0.0,6.0,89,0.00,,---,0.00,VWS V14.01,2013-04-13 09:26:00,
2013-04-13 05:30:00,37.3,34.4,29.88,South,170,3.0,6.0,89,0.00,,---,0.00,VWS V14.01,2013-04-13 09:30:00,
2013-04-13 05:31:00,37.3,34.6,29.88,South,190,1.0,5.0,90,0.00,,---,0.00,VWS V14.01,2013-04-13 09:31:00,
2013-04-13 05:36:00,37.4,34.5,29.88,NW,320,1.0,5.0,89,0.00,,---,0.00,VWS V14.01,2013-04-13 09:36:00,
2013-04-13 05:41:00,37.4,34.5,29.88,WSW,238,3.0,5.0,89,0.00,,---,0.00,VWS V14.01,2013-04-13 09:41:00,
2013-04-13 05:46:00,37.4,34.5,29.88,NW,313,0.0,5.0,89,0.00,,---,0.00,VWS V14.01,2013-04-13 09:46:00,
2013-04-13 05:51:00,37.4,34.2,29.88,WNW,288,1.0,5.0,88,0.00,,---,0.00,VWS V14.01,2013-04-13 09:51:00,
2013-04-13 05:56:00,37.5,34.0,29.88,SW,218,0.0,6.0,87,0.00,,---,0.00,VWS V14.01,2013-04-13 09:56:00,
2013-04-13 06:00:00,37.5,34.0,29.88,SW,218,0.0,6.0,87,0.00,,---,0.00,VWS V14.01,2013-04-13 10:00:00,
2013-04-13 06:01:00,37.5,33.7,29.88,SW,225,2.0,3.0,86,0.00,,---,0.00,VWS V14.01,2013-04-13 10:01:00,
2013-04-13 06:07:00,37.6,33.5,29.88,SSW,207,0.0,7.0,85,0.00,,---,0.00,VWS V14.01,2013-04-13 10:07:00,
2013-04-13 06:12:00,37.7,33.3,29.88,SSW,203,1.0,7.0,84,0.00,,---,0.00,VWS V14.01,2013-04-13 10:12:00,
2013-04-13 06:17:00,37.8,33.4,29.88,SW,218,0.0,7.0,84,0.00,,---,0.00,VWS V14.01,2013-04-13 10:17:00,
2013-04-13 06:22:00,37.8,33.1,29.88,SW,217,0.0,7.0,83,0.00,,---,0.00,VWS V14.01,2013-04-13 10:22:00,
2013-04-13 06:27:00,37.9,32.9,29.88,South,180,2.0,2.0,82,0.00,,---,0.00,VWS V14.01,2013-04-13 10:27:00,
2013-04-13 06:30:00,37.8,32.8,29.88,SE,126,0.0,7.0,82,0.00,,---,0.00,VWS V14.01,2013-04-13 10:30:00,
2013-04-13 06:32:00,37.9,32.6,29.88,NNW,332,0.0,4.0,81,0.00,,---,0.00,VWS V14.01,2013-04-13 10:32:00,
2013-04-13 06:37:00,37.9,32.3,29.88,South,170,2.0,4.0,80,0.00,,---,0.00,VWS V14.01,2013-04-13 10:37:00,
2013-04-13 06:43:00,38.0,32.1,29.88,SW,217,1.0,6.0,79,0.00,,---,0.00,VWS V14.01,2013-04-13 10:43:00,
2013-04-13 06:48:00,38.0,32.1,29.88,NW,313,2.0,6.0,79,0.00,,---,0.00,VWS V14.01,2013-04-13 10:48:00,
2013-04-13 06:53:00,38.0,31.4,29.88,West,278,1.0,6.0,77,0.00,,---,0.00,VWS V14.01,2013-04-13 10:53:00,
2013-04-13 06:58:00,38.1,31.2,29.88,WNW,296,0.0,2.0,76,0.00,,---,0.00,VWS V14.01,2013-04-13 10:58:00,
2013-04-13 07:00:00,38.1,31.2,29.88,West,279,2.0,7.0,76,0.00,,---,0.00,VWS V14.01,2013-04-13 11:00:00,
2013-04-13 07:03:00,38.2,32.0,29.88,WNW,303,0.0,2.0,78,0.00,,---,0.00,VWS V14.01,2013-04-13 11:03:00,
2013-04-13 07:08:00,38.2,32.0,29.88,North,6,1.0,4.0,78,0.00,,---,0.00,VWS V14.01,2013-04-13 11:08:00,
2013-04-13 07:13:00,38.2,31.3,29.89,WNW,294,0.0,4.0,76,0.00,,---,0.00,VWS V14.01,2013-04-13 11:13:00,
2013-04-13 07:18:00,38.2,31.0,29.89,NW,309,4.0,7.0,75,0.00,,---,0.00,VWS V14.01,2013-04-13 11:18:00,
2013-04-13 07:23:00,38.3,31.1,29.89,WNW,296,0.0,7.0,75,0.00,,---,0.00,VWS V14.01,2013-04-13 11:23:00,
2013-04-13 07:28:00,38.3,31.1,29.89,NNE,21,1.0,3.0,75,0.00,,---,0.00,VWS V14.01,2013-04-13 11:28:00,
2013-04-13 07:30:00,38.3,31.1,29.89,NNW,332,0.0,7.0,75,0.00,,---,0.00,VWS V14.01,2013-04-13 11:30:00,
2013-04-13 07:33:00,38.4,30.9,29.89,SSW,203,1.0,3.0,74,0.00,,---,0.00,VWS V14.01,2013-04-13 11:33:00,
2013-04-13 07:38:00,38.4,30.9,29.89,SSW,203,1.0,3.0,74,0.00,,---,0.00,VWS V14.01,2013-04-13 11:38:00,
2013-04-13 07:43:00,38.6,31.4,29.89,SSW,203,0.0,3.0,75,0.00,,---,0.00,VWS V14.01,2013-04-13 11:43:00,
2013-04-13 07:49:00,38.6,31.0,29.89,South,170,0.0,3.0,74,0.00,,---,0.00,VWS V14.01,2013-04-13 11:49:00,
2013-04-13 07:54:00,38.7,31.5,29.90,South,170,0.0,4.0,75,0.00,,---,0.00,VWS V14.01,2013-04-13 11:54:00,
2013-04-13 07:59:00,38.8,31.2,29.90,South,180,1.0,2.0,74,0.00,,---,0.00,VWS V14.01,2013-04-13 11:59:00,
2013-04-13 08:00:00,38.7,31.1,29.90,South,180,0.0,4.0,74,0.00,,---,0.00,VWS V14.01,2013-04-13 12:00:00,
2013-04-13 08:04:00,38.8,31.9,29.90,South,180,0.0,2.0,76,0.00,,---,0.00,VWS V14.01,2013-04-13 12:04:00,
2013-04-13 08:09:00,38.9,31.7,29.90,SSE,159,5.0,5.0,75,0.00,,---,0.00,VWS V14.01,2013-04-13 12:09:00,
2013-04-13 08:14:00,38.9,31.3,29.90,SW,230,0.0,5.0,74,0.00,,---,0.00,VWS V14.01,2013-04-13 12:14:00,
2013-04-13 08:19:00,39.0,31.8,29.90,North,2,0.0,5.0,75,0.00,,---,0.00,VWS V14.01,2013-04-13 12:19:00,
2013-04-13 08:24:00,39.0,31.4,29.90,South,187,2.0,5.0,74,0.00,,---,0.00,VWS V14.01,2013-04-13 12:24:00,
2013-04-13 08:29:00,39.1,31.5,29.90,East,84,0.0,3.0,74,0.00,,---,0.00,VWS V14.01,2013-04-13 12:29:00,
2013-04-13 08:30:00,39.1,31.5,29.90,South,184,1.0,5.0,74,0.00,,---,0.00,VWS V14.01,2013-04-13 12:30:00,
2013-04-13 08:34:00,39.1,31.9,29.90,ESE,107,0.0,4.0,75,0.00,,---,0.00,VWS V14.01,2013-04-13 12:34:00,
2013-04-13 08:39:00,39.2,32.0,29.90,SSW,206,4.0,5.0,75,0.00,,---,0.00,VWS V14.01,2013-04-13 12:39:00,
2013-04-13 08:44:00,39.3,31.7,29.90,SSW,211,0.0,5.0,74,0.00,,---,0.00,VWS V14.01,2013-04-13 12:44:00,
2013-04-13 08:49:00,39.4,32.2,29.91,SSE,155,0.0,5.0,75,0.00,,---,0.00,VWS V14.01,2013-04-13 12:49:00,
2013-04-13 08:54:00,39.5,32.2,29.91,South,180,3.0,5.0,75,0.00,,---,0.00,VWS V14.01,2013-04-13 12:54:00,
2013-04-13 08:59:00,39.6,32.0,29.91,SSW,205,0.0,8.0,74,0.00,,---,0.00,VWS V14.01,2013-04-13 12:59:00,
2013-04-13 09:00:00,39.6,32.7,29.91,SSW,192,0.0,5.0,76,0.00,,---,0.00,VWS V14.01,2013-04-13 13:00:00,
2013-04-13 09:04:00,39.6,32.3,29.91,South,180,3.0,8.0,75,0.00,,---,0.00,VWS V14.01,2013-04-13 13:04:00,
2013-04-13 09:09:00,39.6,32.0,29.92,SSW,192,1.0,8.0,74,0.00,,---,0.00,VWS V14.01,2013-04-13 13:09:00,
2013-04-13 09:14:00,39.6,32.7,29.92,SSW,192,3.0,8.0,76,0.00,,---,0.00,VWS V14.01,2013-04-13 13:14:00,
2013-04-13 09:20:00,39.5,32.6,29.92,SSW,201,0.0,8.0,76,0.00,,---,0.00,VWS V14.01,2013-04-13 13:20:00,
2013-04-13 09:25:00,39.6,33.3,29.92,North,355,0.0,8.0,78,0.00,,---,0.00,VWS V14.01,2013-04-13 13:25:00,
2013-04-13 09:30:00,39.6,33.3,29.91,SSW,195,0.0,3.0,78,0.00,,---,0.00,VWS V14.01,2013-04-13 13:30:00,
2013-04-13 09:35:00,39.7,33.4,29.92,SSW,194,4.0,5.0,78,0.00,,---,0.00,VWS V14.01,2013-04-13 13:35:00,
2013-04-13 09:40:00,39.8,33.5,29.92,SSW,194,0.0,5.0,78,0.00,,---,0.00,VWS V14.01,2013-04-13 13:40:00,
2013-04-13 09:45:00,39.8,33.8,29.92,West,265,0.0,5.0,79,0.00,,---,0.00,VWS V14.01,2013-04-13 13:45:00,
2013-04-13 09:50:00,39.9,33.6,29.92,SSW,205,0.0,5.0,78,0.00,,---,0.00,VWS V14.01,2013-04-13 13:50:00,
2013-04-13 09:55:00,40.1,34.1,29.91,SSW,205,3.0,5.0,79,0.00,,---,0.00,VWS V14.01,2013-04-13 13:55:00,
2013-04-13 10:00:00,40.2,33.9,29.91,SSE,151,1.0,4.0,78,0.00,,---,0.00,VWS V14.01,2013-04-13 14:00:00,
2013-04-13 10:05:00,40.2,33.6,29.91,SW,218,4.0,8.0,77,0.00,,---,0.00,VWS V14.01,2013-04-13 14:05:00,
2013-04-13 10:11:00,40.2,33.9,29.92,SSW,205,0.0,8.0,78,0.00,,---,0.00,VWS V14.01,2013-04-13 14:11:00,
2013-04-13 10:16:00,40.3,34.3,29.91,SSW,194,4.0,8.0,79,0.00,,---,0.00,VWS V14.01,2013-04-13 14:16:00,
2013-04-13 10:21:00,40.4,34.1,29.91,SSW,193,3.0,8.0,78,0.00,,---,0.00,VWS V14.01,2013-04-13 14:21:00,
2013-04-13 10:27:00,40.5,34.2,29.92,SE,143,6.0,9.0,78,0.00,,---,0.00,VWS V14.01,2013-04-13 14:27:00,
2013-04-13 10:30:00,40.5,34.2,29.92,SE,130,0.0,9.0,78,0.00,,---,0.00,VWS V14.01,2013-04-13 14:30:00,
2013-04-13 10:33:00,40.6,34.3,29.91,SSW,193,2.0,5.0,78,0.00,,---,0.00,VWS V14.01,2013-04-13 14:33:00,
2013-04-13 10:38:00,40.8,34.8,29.92,South,185,4.0,8.0,79,0.00,,---,0.00,VWS V14.01,2013-04-13 14:38:00,
2013-04-13 10:44:00,40.9,34.6,29.92,SSW,209,2.0,8.0,78,0.00,,---,0.00,VWS V14.01,2013-04-13 14:44:00,
2013-04-13 10:49:00,41.0,34.7,29.92,South,170,1.0,8.0,78,0.00,,---,0.00,VWS V14.01,2013-04-13 14:49:00,
2013-04-13 10:54:00,41.1,34.8,29.92,South,190,0.0,8.0,78,0.00,,---,0.00,VWS V14.01,2013-04-13 14:54:00,
2013-04-13 10:59:00,41.1,34.8,29.92,South,175,5.0,5.0,78,0.00,,---,0.00,VWS V14.01,2013-04-13 14:59:00,
2013-04-13 11:00:00,41.1,34.8,29.92,South,175,5.0,8.0,78,0.00,,---,0.00,VWS V14.01,2013-04-13 15:00:00,
2013-04-13 11:04:00,41.1,35.1,29.92,North,3,5.0,5.0,79,0.00,,---,0.00,VWS V14.01,2013-04-13 15:04:00,
2013-04-13 11:09:00,41.3,35.6,29.92,SSE,160,1.0,6.0,80,0.00,,---,0.00,VWS V14.01,2013-04-13 15:09:00,
2013-04-13 11:15:00,41.5,35.2,29.92,NNE,26,4.0,6.0,78,0.00,,---,0.00,VWS V14.01,2013-04-13 15:15:00,
2013-04-13 11:20:00,41.7,35.4,29.92,WSW,245,3.0,11.0,78,0.00,,---,0.00,VWS V14.01,2013-04-13 15:20:00,
2013-04-13 11:25:00,41.7,35.7,29.92,South,170,2.0,11.0,79,0.00,,---,0.00,VWS V14.01,2013-04-13 15:25:00,
2013-04-13 11:30:00,41.5,35.8,29.93,East,90,0.0,2.0,80,0.00,,---,0.00,VWS V14.01,2013-04-13 15:30:00,
2013-04-13 11:35:00,41.3,36.2,29.93,SW,227,1.0,4.0,82,0.00,,---,0.00,VWS V14.01,2013-04-13 15:35:00,
2013-04-13 11:40:00,41.0,36.2,29.93,South,188,3.0,5.0,83,0.00,,---,0.00,VWS V14.01,2013-04-13 15:40:00,
2013-04-13 11:45:00,40.7,36.5,29.93,SSW,193,4.0,6.0,85,0.00,,---,0.00,VWS V14.01,2013-04-13 15:45:00,
2013-04-13 11:50:00,40.5,36.3,29.93,NNE,16,2.0,11.0,85,0.00,,---,0.00,VWS V14.01,2013-04-13 15:50:00,
2013-04-13 11:55:00,40.3,36.5,29.94,SSW,213,2.0,11.0,86,0.00,,---,0.00,VWS V14.01,2013-04-13 15:55:00,
2013-04-13 12:00:00,40.0,36.5,29.94,SW,231,0.0,4.0,87,0.01,,---,0.01,VWS V14.01,2013-04-13 16:00:00,
2013-04-13 12:05:00,39.6,36.3,29.94,SW,224,1.0,9.0,88,0.01,,---,0.01,VWS V14.01,2013-04-13 16:05:00,
2013-04-13 12:10:00,39.4,36.4,29.94,SSW,204,2.0,9.0,89,0.01,,---,0.01,VWS V14.01,2013-04-13 16:10:00,
2013-04-13 12:15:00,39.8,37.4,29.93,South,186,1.0,9.0,91,0.01,,---,0.01,VWS V14.01,2013-04-13 16:15:00,
2013-04-13 12:20:00,40.2,37.5,29.93,SSW,196,3.0,9.0,90,0.01,,---,0.01,VWS V14.01,2013-04-13 16:20:00,
2013-04-13 12:25:00,40.6,37.9,29.93,SW,215,0.0,9.0,90,0.01,,---,0.01,VWS V14.01,2013-04-13 16:25:00,
2013-04-13 12:30:00,40.7,38.0,29.93,WNW,285,1.0,9.0,90,0.01,,---,0.01,VWS V14.01,2013-04-13 16:30:00,
2013-04-13 12:31:00,40.8,37.5,29.94,NNW,340,1.0,2.0,88,0.01,,---,0.01,VWS V14.01,2013-04-13 16:31:00,
2013-04-13 12:36:00,40.8,37.2,29.94,SW,228,3.0,10.0,87,0.01,,---,0.01,VWS V14.01,2013-04-13 16:36:00,
2013-04-13 12:41:00,41.0,37.4,29.93,SSW,203,1.0,10.0,87,0.01,,---,0.01,VWS V14.01,2013-04-13 16:41:00,
2013-04-13 12:46:00,41.4,37.5,29.93,WSW,257,2.0,10.0,86,0.01,,---,0.01,VWS V14.01,2013-04-13 16:46:00,
2013-04-13 12:51:00,41.8,37.6,29.93,South,175,1.0,10.0,85,0.01,,---,0.01,VWS V14.01,2013-04-13 16:51:00,
2013-04-13 12:56:00,42.2,38.0,29.93,SW,225,3.0,10.0,85,0.01,,---,0.01,VWS V14.01,2013-04-13 16:56:00,
2013-04-13 13:00:00,42.2,37.7,29.93,South,180,12.0,12.0,84,0.01,,---,0.01,VWS V14.01,2013-04-13 17:00:00,
2013-04-13 13:01:00,42.0,37.5,29.93,South,175,3.0,13.0,84,0.01,,---,0.01,VWS V14.01,2013-04-13 17:01:00,
2013-04-13 13:06:00,42.0,37.5,29.93,South,186,3.0,13.0,84,0.01,,---,0.01,VWS V14.01,2013-04-13 17:06:00,
2013-04-13 13:12:00,42.3,37.8,29.92,South,190,6.0,13.0,84,0.01,,---,0.01,VWS V14.01,2013-04-13 17:12:00,
2013-04-13 13:17:00,42.4,37.3,29.92,South,186,5.0,13.0,82,0.01,,---,0.01,VWS V14.01,2013-04-13 17:17:00,
2013-04-13 13:22:00,42.5,37.1,29.92,SSW,209,2.0,13.0,81,0.01,,---,0.01,VWS V14.01,2013-04-13 17:22:00,
2013-04-13 13:27:00,42.8,37.7,29.92,SW,228,3.0,3.0,82,0.00,,---,0.01,VWS V14.01,2013-04-13 17:27:00,
2013-04-13 13:30:00,42.7,37.6,29.92,SSW,194,2.0,13.0,82,0.01,,---,0.01,VWS V14.01,2013-04-13 17:30:00,
2013-04-13 13:33:00,42.3,37.2,29.93,SSW,192,3.0,10.0,82,0.00,,---,0.01,VWS V14.01,2013-04-13 17:33:00,
2013-04-13 13:38:00,41.7,37.2,29.93,SSW,206,2.0,12.0,84,0.00,,---,0.01,VWS V14.01,2013-04-13 17:38:00,
2013-04-13 13:43:00,41.5,37.3,29.93,SW,236,0.0,12.0,85,0.00,,---,0.01,VWS V14.01,2013-04-13 17:43:00,
2013-04-13 13:48:00,41.3,37.4,29.94,SSE,166,1.0,12.0,86,0.00,,---,0.01,VWS V14.01,2013-04-13 17:48:00,
2013-04-13 13:54:00,41.2,37.0,29.93,South,190,1.0,12.0,85,0.00,,---,0.01,VWS V14.01,2013-04-13 17:54:00,
2013-04-13 13:59:00,41.1,36.9,29.93,SSW,197,5.0,7.0,85,0.00,,---,0.01,VWS V14.01,2013-04-13 17:59:00,
2013-04-13 14:00:00,41.1,37.2,29.94,SW,229,5.0,12.0,86,0.00,,---,0.01,VWS V14.01,2013-04-13 18:00:00,
2013-04-13 14:04:00,40.8,36.7,29.93,SSW,196,3.0,11.0,85,0.00,,---,0.01,VWS V14.01,2013-04-13 18:04:00,
2013-04-13 14:09:00,40.7,36.5,29.94,SSW,213,2.0,11.0,85,0.00,,---,0.01,VWS V14.01,2013-04-13 18:09:00,
2013-04-13 14:14:00,40.9,36.5,29.94,WSW,246,4.0,11.0,84,0.00,,---,0.01,VWS V14.01,2013-04-13 18:14:00,
2013-04-13 14:19:00,41.1,36.6,29.94,NNW,333,4.0,11.0,84,0.00,,---,0.01,VWS V14.01,2013-04-13 18:19:00,
2013-04-13 14:24:00,41.4,36.9,29.94,SW,223,3.0,11.0,84,0.00,,---,0.01,VWS V14.01,2013-04-13 18:24:00,
2013-04-13 14:27:00,41.6,36.8,29.94,SSE,158,1.0,11.0,83,0.00,,---,0.01,VWS V14.01,2013-04-13 18:27:00,
2013-04-13 14:30:00,41.6,36.8,29.94,South,185,2.0,11.0,83,0.00,,---,0.01,VWS V14.01,2013-04-13 18:30:00,
2013-04-13 14:32:00,41.9,37.1,29.94,SW,233,1.0,6.0,83,0.00,,---,0.01,VWS V14.01,2013-04-13 18:32:00,
2013-04-13 14:38:00,42.1,36.7,29.93,NNW,327,7.0,16.0,81,0.00,,---,0.01,VWS V14.01,2013-04-13 18:38:00,
2013-04-13 14:43:00,42.4,37.0,29.93,ENE,78,4.0,16.0,81,0.00,,---,0.01,VWS V14.01,2013-04-13 18:43:00,
2013-04-13 14:48:00,42.4,36.0,29.93,SSW,199,4.0,16.0,78,0.00,,---,0.01,VWS V14.01,2013-04-13 18:48:00,
2013-04-13 14:53:00,42.4,36.0,29.93,NW,307,1.0,16.0,78,0.00,,---,0.01,VWS V14.01,2013-04-13 18:53:00,
2013-04-13 14:58:00,42.3,35.9,29.93,West,274,1.0,1.0,78,0.00,,---,0.01,VWS V14.01,2013-04-13 18:58:00,
2013-04-13 15:00:00,42.3,35.9,29.93,NW,317,0.0,16.0,78,0.00,,---,0.01,VWS V14.01,2013-04-13 19:00:00,
2013-04-13 15:03:00,42.1,35.8,29.93,WSW,237,2.0,15.0,78,0.00,,---,0.01,VWS V14.01,2013-04-13 19:03:00,
2013-04-13 15:08:00,42.0,36.3,29.93,South,170,5.0,15.0,80,0.00,,---,0.01,VWS V14.01,2013-04-13 19:08:00,
2013-04-13 15:13:00,41.8,35.8,29.94,SSW,195,6.0,15.0,79,0.00,,---,0.01,VWS V14.01,2013-04-13 19:13:00,
2013-04-13 15:18:00,41.7,36.0,29.94,SW,215,0.0,15.0,80,0.00,,---,0.01,VWS V14.01,2013-04-13 19:18:00,
2013-04-13 15:23:00,41.8,36.4,29.94,WSW,253,4.0,15.0,81,0.00,,---,0.01,VWS V14.01,2013-04-13 19:23:00,
2013-04-13 15:28:00,41.6,36.5,29.94,SSW,194,3.0,4.0,82,0.00,,---,0.01,VWS V14.01,2013-04-13 19:28:00,
2013-04-13 15:30:00,41.6,36.5,29.94,South,175,3.0,15.0,82,0.00,,---,0.01,VWS V14.01,2013-04-13 19:30:00,
2013-04-13 15:33:00,41.4,36.6,29.94,South,186,0.0,4.0,83,0.00,,---,0.01,VWS V14.01,2013-04-13 19:33:00,
2013-04-13 15:38:00,41.4,36.6,29.94,SSE,155,6.0,10.0,83,0.00,,---,0.01,VWS V14.01,2013-04-13 19:38:00,
2013-04-13 15:43:00,41.5,36.7,29.94,SSW,205,3.0,14.0,83,0.00,,---,0.01,VWS V14.01,2013-04-13 19:43:00,
2013-04-13 15:48:00,41.4,36.6,29.94,SW,223,2.0,14.0,83,0.00,,---,0.01,VWS V14.01,2013-04-13 19:48:00,
2013-04-13 15:53:00,41.4,36.6,29.94,SSW,196,2.0,14.0,83,0.00,,---,0.01,VWS V14.01,2013-04-13 19:53:00,
2013-04-13 15:58:00,41.3,36.5,29.93,SSE,157,0.0,3.0,83,0.00,,---,0.01,VWS V14.01,2013-04-13 19:58:00,
2013-04-13 16:00:00,41.3,36.5,29.94,SSE,157,3.0,14.0,83,0.00,,---,0.01,VWS V14.01,2013-04-13 20:00:00,
2013-04-13 16:03:00,41.4,36.9,29.94,SW,217,1.0,6.0,84,0.00,,---,0.01,VWS V14.01,2013-04-13 20:03:00,
2013-04-13 16:08:00,41.3,36.5,29.94,SSW,205,1.0,6.0,83,0.00,,---,0.01,VWS V14.01,2013-04-13 20:08:00,
2013-04-13 16:13:00,41.4,36.6,29.94,SSW,209,1.0,6.0,83,0.00,,---,0.01,VWS V14.01,2013-04-13 20:13:00,
2013-04-13 16:18:00,41.5,36.7,29.94,SSW,201,0.0,7.0,83,0.00,,---,0.01,VWS V14.01,2013-04-13 20:18:00,
2013-04-13 16:23:00,41.6,36.5,29.94,WNW,288,4.0,7.0,82,0.00,,---,0.01,VWS V14.01,2013-04-13 20:23:00,
2013-04-13 16:28:00,41.8,36.1,29.94,NNE,17,0.0,2.0,80,0.00,,---,0.01,VWS V14.01,2013-04-13 20:28:00,
2013-04-13 16:30:00,41.8,35.8,29.94,NNE,17,2.0,8.0,79,0.00,,---,0.01,VWS V14.01,2013-04-13 20:30:00,
2013-04-13 16:33:00,42.0,35.0,29.94,SW,233,0.0,3.0,76,0.00,,---,0.01,VWS V14.01,2013-04-13 20:33:00,
2013-04-13 16:38:00,42.3,35.0,29.94,South,188,1.0,7.0,75,0.00,,---,0.01,VWS V14.01,2013-04-13 20:38:00,
2013-04-13 16:43:00,42.7,34.7,29.94,SW,226,0.0,11.0,73,0.00,,---,0.01,VWS V14.01,2013-04-13 20:43:00,
2013-04-13 16:48:00,42.7,34.3,29.94,SW,230,0.0,11.0,72,0.00,,---,0.01,VWS V14.01,2013-04-13 20:48:00,
2013-04-13 16:53:00,42.8,34.8,29.94,SSW,211,1.0,11.0,73,0.00,,---,0.01,VWS V14.01,2013-04-13 20:53:00,
2013-04-13 16:58:00,42.8,34.8,29.95,WNW,296,1.0,5.0,73,0.00,,---,0.01,VWS V14.01,2013-04-13 20:58:00,
2013-04-13 17:00:00,42.8,34.4,29.94,WSW,254,2.0,11.0,72,0.00,,---,0.01,VWS V14.01,2013-04-13 21:00:00,
2013-04-13 17:03:00,42.7,34.3,29.94,SW,234,0.0,7.0,72,0.00,,---,0.01,VWS V14.01,2013-04-13 21:03:00,
2013-04-13 17:08:00,42.6,34.2,29.95,North,7,3.0,7.0,72,0.00,,---,0.01,VWS V14.01,2013-04-13 21:08:00,
2013-04-13 17:13:00,42.6,34.9,29.95,West,269,1.0,7.0,74,0.00,,---,0.01,VWS V14.01,2013-04-13 21:13:00,
2013-04-13 17:18:00,42.5,34.5,29.95,NNW,331,0.0,7.0,73,0.00,,---,0.01,VWS V14.01,2013-04-13 21:18:00,
2013-04-13 17:23:00,42.3,34.6,29.95,SW,230,4.0,8.0,74,0.00,,---,0.01,VWS V14.01,2013-04-13 21:23:00,
2013-04-13 17:28:00,42.2,34.9,29.95,NW,316,0.0,4.0,75,0.00,,---,0.01,VWS V14.01,2013-04-13 21:28:00,
2013-04-13 17:30:00,42.2,34.9,29.95,SW,226,2.0,8.0,75,0.00,,---,0.01,VWS V14.01,2013-04-13 21:30:00,
2013-04-13 17:33:00,42.1,34.8,29.95,NNW,336,6.0,10.0,75,0.00,,---,0.01,VWS V14.01,2013-04-13 21:33:00,
2013-04-13 17:38:00,42.0,34.7,29.95,SW,236,3.0,10.0,75,0.00,,---,0.01,VWS V14.01,2013-04-13 21:38:00,
2013-04-13 17:43:00,42.0,35.0,29.95,WSW,242,1.0,10.0,76,0.00,,---,0.01,VWS V14.01,2013-04-13 21:43:00,
2013-04-13 17:48:00,42.0,35.0,29.95,SW,230,0.0,10.0,76,0.00,,---,0.01,VWS V14.01,2013-04-13 21:48:00,
2013-04-13 17:54:00,41.9,34.9,29.95,NNW,342,0.0,10.0,76,0.00,,---,0.01,VWS V14.01,2013-04-13 21:54:00,
2013-04-13 17:59:00,41.9,35.2,29.96,SSW,196,1.0,5.0,77,0.00,,---,0.01,VWS V14.01,2013-04-13 21:59:00,
2013-04-13 18:00:00,41.9,35.2,29.95,South,175,3.0,10.0,77,0.00,,---,0.01,VWS V14.01,2013-04-13 22:00:00,
2013-04-13 18:04:00,41.9,35.2,29.96,SW,215,0.0,5.0,77,0.00,,---,0.01,VWS V14.01,2013-04-13 22:04:00,
2013-04-13 18:09:00,41.8,35.8,29.97,SSE,151,3.0,5.0,79,0.00,,---,0.01,VWS V14.01,2013-04-13 22:09:00,
2013-04-13 18:14:00,41.5,35.8,29.97,WSW,258,0.0,7.0,80,0.00,,---,0.01,VWS V14.01,2013-04-13 22:14:00,
2013-04-13 18:19:00,41.1,35.4,29.97,WNW,283,4.0,7.0,80,0.00,,---,0.01,VWS V14.01,2013-04-13 22:19:00,
2013-04-13 18:24:00,40.8,35.7,29.98,WNW,302,6.0,9.0,82,0.00,,---,0.01,VWS V14.01,2013-04-13 22:24:00,
2013-04-13 18:29:00,40.4,36.0,29.98,NW,319,2.0,4.0,84,0.00,,---,0.01,VWS V14.01,2013-04-13 22:29:00,
2013-04-13 18:30:00,40.5,35.8,29.98,SW,234,0.0,9.0,83,0.00,,---,0.01,VWS V14.01,2013-04-13 22:30:00,
2013-04-13 18:34:00,39.8,35.7,29.98,NNW,348,1.0,8.0,85,0.00,,---,0.01,VWS V14.01,2013-04-13 22:34:00,
2013-04-13 18:39:00,39.6,35.8,29.98,NW,306,1.0,10.0,86,0.00,,---,0.01,VWS V14.01,2013-04-13 22:39:00,
2013-04-13 18:44:00,39.5,36.0,29.99,WSW,257,2.0,10.0,87,0.00,,---,0.01,VWS V14.01,2013-04-13 22:44:00,
2013-04-13 18:49:00,39.2,35.7,29.99,WNW,293,0.0,10.0,87,0.00,,---,0.01,VWS V14.01,2013-04-13 22:49:00,
2013-04-13 18:54:00,39.0,35.2,29.99,West,269,0.0,10.0,86,0.00,,---,0.01,VWS V14.01,2013-04-13 22:54:00,
2013-04-13 18:59:00,38.9,35.4,30.00,SSE,162,1.0,4.0,87,0.01,,---,0.02,VWS V14.01,2013-04-13 22:59:00,
2013-04-13 19:00:00,38.9,35.4,30.00,NW,316,2.0,10.0,87,0.01,,---,0.02,VWS V14.01,2013-04-13 23:00:00,
2013-04-13 19:04:00,38.8,35.3,30.00,NW,318,0.0,7.0,87,0.01,,---,0.02,VWS V14.01,2013-04-13 23:04:00,
2013-04-13 19:09:00,38.8,35.6,30.00,NW,318,0.0,7.0,88,0.01,,---,0.02,VWS V14.01,2013-04-13 23:09:00,
2013-04-13 19:14:00,38.7,35.5,29.99,NNW,337,1.0,7.0,88,0.01,,---,0.02,VWS V14.01,2013-04-13 23:14:00,
2013-04-13 19:19:00,38.6,35.4,29.99,NW,319,4.0,13.0,88,0.01,,---,0.02,VWS V14.01,2013-04-13 23:19:00,
2013-04-13 19:24:00,38.6,35.1,30.00,NW,312,2.0,13.0,87,0.01,,---,0.02,VWS V14.01,2013-04-13 23:24:00,
2013-04-13 19:29:00,38.6,35.1,30.00,NE,47,1.0,2.0,87,0.01,,---,0.02,VWS V14.01,2013-04-13 23:29:00,
2013-04-13 19:30:00,38.5,35.0,30.00,WNW,296,2.0,13.0,87,0.01,,---,0.02,VWS V14.01,2013-04-13 23:30:00,
2013-04-13 19:34:00,38.5,34.4,30.00,South,180,2.0,8.0,85,0.01,,---,0.02,VWS V14.01,2013-04-13 23:34:00,
2013-04-13 19:39:00,38.5,34.1,30.00,WNW,291,0.0,8.0,84,0.01,,---,0.02,VWS V14.01,2013-04-13 23:39:00,
2013-04-13 19:44:00,38.5,34.1,30.00,West,269,1.0,8.0,84,0.01,,---,0.02,VWS V14.01,2013-04-13 23:44:00,
2013-04-13 19:49:00,38.4,33.4,30.00,NW,311,2.0,8.0,82,0.01,,---,0.02,VWS V14.01,2013-04-13 23:49:00,
2013-04-13 19:54:00,38.4,33.7,30.00,WSW,249,1.0,8.0,83,0.01,,---,0.02,VWS V14.01,2013-04-13 23:54:00,
2013-04-13 19:59:00,38.3,33.3,30.00,NW,309,0.0,2.0,82,0.00,,---,0.02,VWS V14.01,2013-04-13 23:59:00,
2013-04-13 20:00:00,38.4,33.7,30.00,WSW,243,0.0,8.0,83,0.01,,---,0.02,VWS V14.01,2013-04-14 00:00:00,
2013-04-13 20:04:00,38.3,33.6,30.00,South,175,0.0,5.0,83,0.00,,---,0.02,VWS V14.01,2013-04-14 00:04:00,
2013-04-13 20:09:00,38.2,33.2,30.00,NW,309,2.0,6.0,82,0.00,,---,0.02,VWS V14.01,2013-04-14 00:09:00,
2013-04-13 20:14:00,38.1,33.1,30.01,WNW,288,0.0,6.0,82,0.00,,---,0.02,VWS V14.01,2013-04-14 00:14:00,
2013-04-13 20:19:00,38.1,33.1,30.01,NW,311,7.0,7.0,82,0.00,,---,0.02,VWS V14.01,2013-04-14 00:19:00,
2013-04-13 20:24:00,38.1,32.8,30.01,ENE,74,0.0,7.0,81,0.00,,---,0.02,VWS V14.01,2013-04-14 00:24:00,
2013-04-13 20:29:00,38.0,32.7,30.01,WSW,245,1.0,4.0,81,0.00,,---,0.02,VWS V14.01,2013-04-14 00:29:00,
2013-04-13 20:30:00,38.1,33.1,30.01,NNW,334,0.0,7.0,82,0.00,,---,0.02,VWS V14.01,2013-04-14 00:30:00,
2013-04-13 20:34:00,38.0,32.7,30.01,NW,315,0.0,4.0,81,0.00,,---,0.02,VWS V14.01,2013-04-14 00:34:00,
2013-04-13 20:39:00,37.9,32.6,30.01,West,265,0.0,4.0,81,0.00,,---,0.02,VWS V14.01,2013-04-14 00:39:00,
2013-04-13 20:44:00,37.8,32.8,30.01,SW,219,0.0,4.0,82,0.00,,---,0.02,VWS V14.01,2013-04-14 00:44:00,
2013-04-13 20:50:00,37.7,32.7,30.01,SSW,192,0.0,4.0,82,0.00,,---,0.02,VWS V14.01,2013-04-14 00:50:00,
2013-04-13 20:55:00,37.6,32.6,30.01,SW,224,0.0,4.0,82,0.00,,---,0.02,VWS V14.01,2013-04-14 00:55:00,
2013-04-13 21:00:00,37.5,32.5,30.01,SW,229,0.0,1.0,82,0.00,,---,0.02,VWS V14.01,2013-04-14 01:00:00,
2013-04-13 21:05:00,37.5,32.5,30.02,NW,324,0.0,5.0,82,0.00,,---,0.02,VWS V14.01,2013-04-14 01:05:00,
2013-04-13 21:10:00,37.5,32.5,30.02,NW,304,0.0,5.0,82,0.00,,---,0.02,VWS V14.01,2013-04-14 01:10:00,
2013-04-13 21:15:00,37.6,32.6,30.02,SSE,165,3.0,5.0,82,0.00,,---,0.02,VWS V14.01,2013-04-14 01:15:00,
2013-04-13 21:20:00,37.7,32.4,30.02,South,190,2.0,6.0,81,0.00,,---,0.02,VWS V14.01,2013-04-14 01:20:00,
2013-04-13 21:25:00,37.8,32.5,30.02,South,180,0.0,6.0,81,0.00,,---,0.02,VWS V14.01,2013-04-14 01:25:00,
2013-04-13 21:30:00,37.8,32.5,30.02,South,189,0.0,2.0,81,0.00,,---,0.02,VWS V14.01,2013-04-14 01:30:00,
2013-04-13 21:35:00,37.9,32.6,30.03,South,189,0.0,2.0,81,0.00,,---,0.02,VWS V14.01,2013-04-14 01:35:00,
2013-04-13 21:40:00,37.9,32.0,30.03,South,189,0.0,2.0,79,0.00,,---,0.02,VWS V14.01,2013-04-14 01:40:00,
2013-04-13 21:45:00,37.9,32.3,30.03,WSW,254,0.0,2.0,80,0.00,,---,0.02,VWS V14.01,2013-04-14 01:45:00,
2013-04-13 21:50:00,38.0,31.8,30.03,WSW,254,0.0,2.0,78,0.00,,---,0.02,VWS V14.01,2013-04-14 01:50:00,
2013-04-13 21:55:00,38.0,31.8,30.03,NNW,337,0.0,4.0,78,0.00,,---,0.02,VWS V14.01,2013-04-14 01:55:00,
2013-04-13 22:00:00,38.0,32.1,30.04,NNW,346,1.0,4.0,79,0.00,,---,0.02,VWS V14.01,2013-04-14 02:00:00,
2013-04-13 22:05:00,37.9,31.7,30.03,WNW,283,0.0,4.0,78,0.00,,---,0.02,VWS V14.01,2013-04-14 02:05:00,
2013-04-13 22:10:00,37.8,31.9,30.04,WNW,283,1.0,4.0,79,0.00,,---,0.02,VWS V14.01,2013-04-14 02:10:00,
2013-04-13 22:15:00,37.7,31.8,30.04,NW,319,0.0,4.0,79,0.00,,---,0.02,VWS V14.01,2013-04-14 02:15:00,
2013-04-13 22:20:00,37.5,31.3,30.04,NW,319,0.0,4.0,78,0.00,,---,0.02,VWS V14.01,2013-04-14 02:20:00,
2013-04-13 22:25:00,37.5,31.6,30.04,NW,319,0.0,4.0,79,0.00,,---,0.02,VWS V14.01,2013-04-14 02:25:00,
2013-04-13 22:30:00,37.4,31.2,30.04,NW,319,1.0,1.0,78,0.00,,---,0.02,VWS V14.01,2013-04-14 02:30:00,
2013-04-13 22:35:00,37.4,31.5,30.04,NW,319,0.0,1.0,79,0.00,,---,0.02,VWS V14.01,2013-04-14 02:35:00,
2013-04-13 22:40:00,37.3,31.4,30.04,NW,307,0.0,3.0,79,0.00,,---,0.02,VWS V14.01,2013-04-14 02:40:00,
2013-04-13 22:45:00,37.3,31.4,30.04,NW,307,0.0,3.0,79,0.00,,---,0.02,VWS V14.01,2013-04-14 02:45:00,
2013-04-13 22:50:00,37.2,31.3,30.05,SW,225,0.0,3.0,79,0.00,,---,0.02,VWS V14.01,2013-04-14 02:50:00,
2013-04-13 22:55:00,37.1,31.2,30.05,SW,236,0.0,3.0,79,0.00,,---,0.02,VWS V14.01,2013-04-14 02:55:00,
2013-04-13 23:00:00,37.1,31.2,30.05,SW,236,1.0,2.0,79,0.00,,---,0.02,VWS V14.01,2013-04-14 03:00:00,
2013-04-13 23:05:00,37.0,31.4,30.05,SW,236,0.0,3.0,80,0.00,,---,0.02,VWS V14.01,2013-04-14 03:05:00,
2013-04-13 23:10:00,36.9,31.0,30.05,SW,236,1.0,3.0,79,0.00,,---,0.02,VWS V14.01,2013-04-14 03:10:00,
2013-04-13 23:15:00,36.9,31.3,30.05,SW,236,0.0,3.0,80,0.00,,---,0.02,VWS V14.01,2013-04-14 03:15:00,
2013-04-13 23:20:00,36.9,31.3,30.05,SW,236,0.0,3.0,80,0.00,,---,0.02,VWS V14.01,2013-04-14 03:20:00,
2013-04-13 23:25:00,36.9,31.6,30.05,SSW,206,0.0,5.0,81,0.00,,---,0.02,VWS V14.01,2013-04-14 03:25:00,
2013-04-13 23:30:00,36.9,31.6,30.05,SSW,206,0.0,0.0,81,0.00,,---,0.02,VWS V14.01,2013-04-14 03:30:00,
2013-04-13 23:35:00,36.8,31.5,30.05,SSW,206,0.0,1.0,81,0.00,,---,0.02,VWS V14.01,2013-04-14 03:35:00,
2013-04-13 23:40:00,36.8,31.5,30.05,SSW,206,1.0,2.0,81,0.00,,---,0.02,VWS V14.01,2013-04-14 03:40:00,
2013-04-13 23:45:00,36.8,31.5,30.05,SSW,206,0.0,2.0,81,0.00,,---,0.02,VWS V14.01,2013-04-14 03:45:00,
2013-04-13 23:50:00,36.9,31.3,30.05,SE,131,0.0,2.0,80,0.00,,---,0.02,VWS V14.01,2013-04-14 03:50:00,
2013-04-13 23:55:00,36.9,31.6,30.06,SE,131,1.0,2.0,81,0.00,,---,0.02,VWS V14.01,2013-04-14 03:55:00,